EJU62PT EGGD-LPFR
Flight info
| Callsign | EJU62PT |
|---|---|
| Flight time | 2h 23m |
| Altitude | 37000 |
| Route | EXMOR N92 DAWLY DCT BHD DCT SALCO DCT IBISU DCT BALDA DCT ABUPI DCT ORVED DCT UPULO DCT ALAGU |
| Aircraft | A320/M-SDE3FGHIRWY/LB1 |
Departure
| Time | 2026-05-07 18:55 |
|---|---|
| Airport | Bristol Airport (EGGD) |
Arrival
| Time | 2026-05-07 21:19 |
|---|---|
| Airport | Faro - Gago Coutinho International Airport (LPFR) |
| Time | Latitude | Longitude | Altitude | Speed | Heading |
|---|---|---|---|---|---|
| 2026-05-07 18:01 | 51.38527 | -2.70903 | 623 ft | 0 kts | 267° |
| 2026-05-07 18:46 | 51.38528 | -2.70883 | 624 ft | 2 kts | 267° |
| 2026-05-07 18:47 | 51.38533 | -2.70847 | 617 ft | 4 kts | 220° |
| 2026-05-07 18:47 | 51.38554 | -2.70836 | 624 ft | 3 kts | 176° |
| 2026-05-07 18:47 | 51.38561 | -2.70837 | 612 ft | 0 kts | 176° |
| 2026-05-07 18:50 | 51.38557 | -2.70837 | 612 ft | 1 kts | 176° |
| 2026-05-07 18:50 | 51.38551 | -2.70836 | 624 ft | 0 kts | 176° |
| 2026-05-07 18:51 | 51.38527 | -2.70834 | 615 ft | 7 kts | 176° |
| 2026-05-07 18:51 | 51.38476 | -2.70810 | 620 ft | 10 kts | 124° |
| 2026-05-07 18:51 | 51.38475 | -2.70678 | 610 ft | 11 kts | 86° |
| 2026-05-07 18:51 | 51.38478 | -2.70581 | 615 ft | 7 kts | 95° |
| 2026-05-07 18:52 | 51.38448 | -2.70526 | 612 ft | 6 kts | 160° |
| 2026-05-07 18:52 | 51.38446 | -2.70524 | 612 ft | 0 kts | 161° |
| 2026-05-07 18:53 | 51.38445 | -2.70524 | 612 ft | 1 kts | 161° |
| 2026-05-07 18:53 | 51.38422 | -2.70512 | 620 ft | 9 kts | 163° |
| 2026-05-07 18:53 | 51.38347 | -2.70486 | 612 ft | 9 kts | 184° |
| 2026-05-07 18:54 | 51.38322 | -2.70544 | 619 ft | 0 kts | 261° |
| 2026-05-07 18:54 | 51.38322 | -2.70548 | 618 ft | 5 kts | 262° |
| 2026-05-07 18:54 | 51.38302 | -2.71048 | 603 ft | 84 kts | 266° |
| 2026-05-07 18:55 | 51.38252 | -2.72322 | 633 ft | 141 kts | 266° |
| 2026-05-07 18:55 | 51.38179 | -2.73945 | 1187 ft | 142 kts | 264° |
| 2026-05-07 18:55 | 51.38114 | -2.75519 | 1920 ft | 138 kts | 263° |
| 2026-05-07 18:55 | 51.38060 | -2.77165 | 2171 ft | 162 kts | 264° |
| 2026-05-07 18:56 | 51.38002 | -2.79134 | 2406 ft | 188 kts | 265° |
| 2026-05-07 18:56 | 51.37947 | -2.81329 | 2868 ft | 205 kts | 265° |
| 2026-05-07 18:56 | 51.37899 | -2.83733 | 3265 ft | 228 kts | 265° |
| 2026-05-07 18:56 | 51.37826 | -2.86396 | 3722 ft | 251 kts | 261° |
| 2026-05-07 18:57 | 51.37249 | -2.89077 | 4411 ft | 258 kts | 234° |
| 2026-05-07 18:57 | 51.35949 | -2.91061 | 5317 ft | 259 kts | 214° |
| 2026-05-07 18:57 | 51.34481 | -2.92701 | 6394 ft | 256 kts | 213° |
| 2026-05-07 18:57 | 51.32973 | -2.94321 | 7140 ft | 266 kts | 213° |
| 2026-05-07 18:58 | 51.31444 | -2.96004 | 8013 ft | 269 kts | 217° |
| 2026-05-07 18:58 | 51.30038 | -2.98008 | 8864 ft | 273 kts | 224° |
| 2026-05-07 18:58 | 51.28880 | -3.00417 | 9751 ft | 276 kts | 241° |
| 2026-05-07 18:58 | 51.28095 | -3.03269 | 10367 ft | 289 kts | 245° |
| 2026-05-07 18:59 | 51.27225 | -3.06304 | 10654 ft | 310 kts | 243° |
| 2026-05-07 18:59 | 51.26264 | -3.09454 | 11260 ft | 319 kts | 243° |
| 2026-05-07 18:59 | 51.25276 | -3.12596 | 11988 ft | 323 kts | 242° |
| 2026-05-07 18:59 | 51.24251 | -3.15817 | 12742 ft | 327 kts | 242° |
| 2026-05-07 19:00 | 51.23211 | -3.19074 | 13489 ft | 331 kts | 242° |
| 2026-05-07 19:00 | 51.22158 | -3.22370 | 14178 ft | 335 kts | 242° |
| 2026-05-07 19:00 | 51.21099 | -3.25702 | 14840 ft | 338 kts | 242° |
| 2026-05-07 19:00 | 51.20026 | -3.29058 | 15520 ft | 341 kts | 240° |
| 2026-05-07 19:01 | 51.18637 | -3.32126 | 16180 ft | 343 kts | 226° |
| 2026-05-07 19:01 | 51.16799 | -3.34579 | 16830 ft | 347 kts | 212° |
| 2026-05-07 19:01 | 51.14616 | -3.36226 | 17475 ft | 351 kts | 198° |
| 2026-05-07 19:01 | 51.12209 | -3.36973 | 18127 ft | 355 kts | 187° |
| 2026-05-07 19:02 | 51.09742 | -3.37392 | 18722 ft | 357 kts | 187° |
| 2026-05-07 19:02 | 51.07257 | -3.37818 | 19299 ft | 360 kts | 187° |
| 2026-05-07 19:02 | 51.04758 | -3.38252 | 19877 ft | 363 kts | 187° |
| 2026-05-07 19:02 | 51.02240 | -3.38693 | 20458 ft | 365 kts | 187° |
| 2026-05-07 19:03 | 50.99704 | -3.39139 | 21034 ft | 368 kts | 187° |
| 2026-05-07 19:03 | 50.97153 | -3.39586 | 21603 ft | 370 kts | 187° |
| 2026-05-07 19:03 | 50.94582 | -3.40032 | 22178 ft | 373 kts | 187° |
| 2026-05-07 19:03 | 50.91991 | -3.40478 | 22736 ft | 376 kts | 187° |
| 2026-05-07 19:04 | 50.89383 | -3.40924 | 23296 ft | 379 kts | 187° |
| 2026-05-07 19:04 | 50.86750 | -3.41373 | 23797 ft | 381 kts | 187° |
| 2026-05-07 19:04 | 50.84103 | -3.41824 | 24242 ft | 384 kts | 187° |
| 2026-05-07 19:04 | 50.81442 | -3.42280 | 24667 ft | 386 kts | 187° |
| 2026-05-07 19:05 | 50.78758 | -3.42742 | 25090 ft | 389 kts | 187° |
| 2026-05-07 19:05 | 50.76065 | -3.43208 | 25512 ft | 391 kts | 187° |
| 2026-05-07 19:05 | 50.73354 | -3.43676 | 25925 ft | 393 kts | 187° |
| 2026-05-07 19:05 | 50.70623 | -3.44144 | 26333 ft | 395 kts | 187° |
| 2026-05-07 19:06 | 50.67884 | -3.44611 | 26733 ft | 397 kts | 187° |
| 2026-05-07 19:06 | 50.62353 | -3.45552 | 27502 ft | 402 kts | 187° |
| 2026-05-07 19:06 | 50.59564 | -3.46024 | 27875 ft | 404 kts | 187° |
| 2026-05-07 19:07 | 50.56791 | -3.46494 | 28241 ft | 406 kts | 187° |
| 2026-05-07 19:07 | 50.53974 | -3.46974 | 28605 ft | 408 kts | 187° |
| 2026-05-07 19:07 | 50.51150 | -3.47457 | 28962 ft | 410 kts | 187° |
| 2026-05-07 19:07 | 50.48309 | -3.47941 | 29295 ft | 412 kts | 187° |
| 2026-05-07 19:08 | 50.45449 | -3.48426 | 29647 ft | 414 kts | 187° |
| 2026-05-07 19:08 | 50.42578 | -3.48913 | 29979 ft | 416 kts | 187° |
| 2026-05-07 19:08 | 50.39695 | -3.49391 | 30268 ft | 418 kts | 186° |
| 2026-05-07 19:08 | 50.36788 | -3.49735 | 30537 ft | 420 kts | 184° |
| 2026-05-07 19:09 | 50.33858 | -3.49930 | 30798 ft | 422 kts | 183° |
| 2026-05-07 19:09 | 50.30916 | -3.50040 | 31054 ft | 423 kts | 182° |
| 2026-05-07 19:09 | 50.27969 | -3.50123 | 31305 ft | 425 kts | 182° |
| 2026-05-07 19:09 | 50.25009 | -3.50215 | 31576 ft | 425 kts | 182° |
| 2026-05-07 19:10 | 50.22049 | -3.50335 | 31937 ft | 424 kts | 183° |
| 2026-05-07 19:10 | 50.19100 | -3.50478 | 32294 ft | 423 kts | 183° |
| 2026-05-07 19:10 | 50.16201 | -3.50636 | 32641 ft | 422 kts | 183° |
| 2026-05-07 19:10 | 50.13271 | -3.50804 | 32984 ft | 421 kts | 184° |
| 2026-05-07 19:11 | 50.10353 | -3.50971 | 33315 ft | 420 kts | 184° |
| 2026-05-07 19:11 | 50.07433 | -3.51137 | 33653 ft | 419 kts | 184° |
| 2026-05-07 19:11 | 50.04523 | -3.51301 | 33997 ft | 418 kts | 184° |
| 2026-05-07 19:11 | 50.01617 | -3.51462 | 34274 ft | 418 kts | 184° |
| 2026-05-07 19:12 | 49.98710 | -3.51619 | 34515 ft | 418 kts | 184° |
| 2026-05-07 19:12 | 49.95796 | -3.51772 | 34733 ft | 419 kts | 184° |
| 2026-05-07 19:12 | 49.92884 | -3.51924 | 34945 ft | 420 kts | 184° |
| 2026-05-07 19:12 | 49.89960 | -3.52083 | 35139 ft | 421 kts | 184° |
| 2026-05-07 19:13 | 49.87033 | -3.52243 | 35341 ft | 421 kts | 184° |
| 2026-05-07 19:13 | 49.85089 | -3.52350 | 35474 ft | 422 kts | 184° |
| 2026-05-07 19:13 | 49.82152 | -3.52510 | 35667 ft | 423 kts | 184° |
| 2026-05-07 19:13 | 49.78219 | -3.52715 | 35922 ft | 423 kts | 184° |
| 2026-05-07 19:14 | 49.76269 | -3.52818 | 36040 ft | 424 kts | 184° |
| 2026-05-07 19:14 | 49.73301 | -3.53270 | 36238 ft | 422 kts | 193° |
| 2026-05-07 19:14 | 49.70494 | -3.54367 | 36399 ft | 422 kts | 198° |
| 2026-05-07 19:14 | 49.67668 | -3.55626 | 36559 ft | 422 kts | 198° |
| 2026-05-07 19:15 | 49.64839 | -3.56877 | 36729 ft | 423 kts | 198° |
| 2026-05-07 19:15 | 49.62006 | -3.58130 | 36913 ft | 423 kts | 198° |
| 2026-05-07 19:15 | 49.56339 | -3.60630 | 36993 ft | 423 kts | 198° |
| 2026-05-07 19:16 | 49.50686 | -3.63110 | 36992 ft | 422 kts | 198° |
| 2026-05-07 19:16 | 49.45029 | -3.65582 | 36987 ft | 422 kts | 198° |
| 2026-05-07 19:17 | 49.39383 | -3.68039 | 36992 ft | 422 kts | 198° |
| 2026-05-07 19:17 | 49.33733 | -3.70499 | 36993 ft | 422 kts | 198° |
| 2026-05-07 19:18 | 49.28077 | -3.72965 | 36999 ft | 422 kts | 198° |
| 2026-05-07 19:18 | 49.22423 | -3.75431 | 36987 ft | 422 kts | 198° |
| 2026-05-07 19:19 | 49.16805 | -3.77863 | 36990 ft | 423 kts | 198° |
| 2026-05-07 19:19 | 49.11141 | -3.80300 | 36996 ft | 423 kts | 198° |
| 2026-05-07 19:20 | 49.05482 | -3.82736 | 36999 ft | 423 kts | 198° |
| 2026-05-07 19:20 | 48.99819 | -3.85167 | 36998 ft | 423 kts | 198° |
| 2026-05-07 19:21 | 48.94157 | -3.87602 | 36998 ft | 423 kts | 198° |
| 2026-05-07 19:21 | 48.88487 | -3.90025 | 37002 ft | 423 kts | 198° |
| 2026-05-07 19:22 | 48.82816 | -3.92446 | 37008 ft | 423 kts | 198° |
| 2026-05-07 19:22 | 48.77141 | -3.94867 | 37009 ft | 423 kts | 198° |
| 2026-05-07 19:23 | 48.71505 | -3.97259 | 37008 ft | 423 kts | 198° |
| 2026-05-07 19:23 | 48.65830 | -3.99662 | 37007 ft | 424 kts | 198° |
| 2026-05-07 19:24 | 48.60154 | -4.02066 | 37006 ft | 424 kts | 198° |
| 2026-05-07 19:24 | 48.54478 | -4.04452 | 36997 ft | 424 kts | 198° |
| 2026-05-07 19:25 | 48.48798 | -4.06835 | 37004 ft | 424 kts | 198° |
| 2026-05-07 19:25 | 48.43111 | -4.09221 | 37006 ft | 424 kts | 198° |
| 2026-05-07 19:26 | 48.37429 | -4.11598 | 37007 ft | 424 kts | 198° |
| 2026-05-07 19:26 | 48.31744 | -4.13981 | 36998 ft | 424 kts | 198° |
| 2026-05-07 19:27 | 48.26054 | -4.16362 | 37004 ft | 424 kts | 198° |
| 2026-05-07 19:27 | 48.20366 | -4.18716 | 37007 ft | 424 kts | 198° |
| 2026-05-07 19:28 | 48.14673 | -4.21077 | 36991 ft | 424 kts | 198° |
| 2026-05-07 19:28 | 48.08969 | -4.23445 | 36992 ft | 425 kts | 198° |
| 2026-05-07 19:29 | 48.03303 | -4.25792 | 37000 ft | 425 kts | 198° |
| 2026-05-07 19:29 | 47.97598 | -4.28140 | 36992 ft | 425 kts | 198° |
| 2026-05-07 19:30 | 47.91886 | -4.30480 | 36975 ft | 426 kts | 198° |
| 2026-05-07 19:30 | 47.86172 | -4.32819 | 36991 ft | 426 kts | 198° |
| 2026-05-07 19:31 | 47.80451 | -4.35159 | 36990 ft | 426 kts | 198° |
| 2026-05-07 19:31 | 47.74725 | -4.37498 | 36994 ft | 427 kts | 198° |
| 2026-05-07 19:32 | 47.69002 | -4.39836 | 36987 ft | 427 kts | 198° |
| 2026-05-07 19:32 | 47.63273 | -4.42172 | 36996 ft | 427 kts | 198° |
| 2026-05-07 19:33 | 47.57539 | -4.44505 | 36995 ft | 427 kts | 198° |
| 2026-05-07 19:33 | 47.51798 | -4.46820 | 36999 ft | 428 kts | 198° |
| 2026-05-07 19:34 | 47.46058 | -4.49129 | 36992 ft | 428 kts | 198° |
| 2026-05-07 19:34 | 47.40308 | -4.51441 | 36994 ft | 428 kts | 198° |
| 2026-05-07 19:35 | 47.34567 | -4.53749 | 36991 ft | 428 kts | 198° |
| 2026-05-07 19:35 | 47.28815 | -4.56057 | 36980 ft | 428 kts | 198° |
| 2026-05-07 19:36 | 47.23068 | -4.58359 | 36987 ft | 428 kts | 198° |
| 2026-05-07 19:36 | 47.17372 | -4.60628 | 36991 ft | 428 kts | 198° |
| 2026-05-07 19:37 | 47.11614 | -4.62926 | 36986 ft | 429 kts | 198° |
| 2026-05-07 19:37 | 47.05847 | -4.65196 | 36977 ft | 429 kts | 198° |
| 2026-05-07 19:38 | 47.00065 | -4.67415 | 36984 ft | 429 kts | 197° |
| 2026-05-07 19:38 | 46.94280 | -4.69621 | 36988 ft | 430 kts | 197° |
| 2026-05-07 19:39 | 46.88498 | -4.71834 | 36989 ft | 430 kts | 197° |
| 2026-05-07 19:39 | 46.82701 | -4.74051 | 36981 ft | 430 kts | 197° |
| 2026-05-07 19:40 | 46.76914 | -4.76263 | 36985 ft | 430 kts | 197° |
| 2026-05-07 19:40 | 46.71125 | -4.78473 | 36985 ft | 430 kts | 197° |
| 2026-05-07 19:41 | 46.65330 | -4.80667 | 36995 ft | 430 kts | 197° |
| 2026-05-07 19:41 | 46.59533 | -4.82861 | 36983 ft | 430 kts | 197° |
| 2026-05-07 19:42 | 46.53775 | -4.85041 | 36987 ft | 430 kts | 198° |
| 2026-05-07 19:42 | 46.47983 | -4.87239 | 36990 ft | 430 kts | 197° |
| 2026-05-07 19:43 | 46.42194 | -4.89405 | 36990 ft | 430 kts | 197° |
| 2026-05-07 19:43 | 46.36397 | -4.91578 | 36991 ft | 430 kts | 198° |
| 2026-05-07 19:44 | 46.30607 | -4.93760 | 36992 ft | 430 kts | 198° |
| 2026-05-07 19:44 | 46.24811 | -4.95921 | 36974 ft | 430 kts | 198° |
| 2026-05-07 19:45 | 46.19021 | -4.98083 | 36976 ft | 430 kts | 198° |
| 2026-05-07 19:45 | 46.13235 | -5.00242 | 36978 ft | 430 kts | 198° |
| 2026-05-07 19:46 | 46.07446 | -5.02398 | 36979 ft | 430 kts | 198° |
| 2026-05-07 19:46 | 46.01655 | -5.04548 | 36973 ft | 430 kts | 197° |
| 2026-05-07 19:47 | 45.95861 | -5.06676 | 36969 ft | 430 kts | 197° |
| 2026-05-07 19:47 | 45.90066 | -5.08809 | 36971 ft | 430 kts | 197° |
| 2026-05-07 19:48 | 45.84272 | -5.10944 | 36956 ft | 430 kts | 198° |
| 2026-05-07 19:48 | 45.78471 | -5.13083 | 36958 ft | 430 kts | 198° |
| 2026-05-07 19:49 | 45.72704 | -5.15200 | 36958 ft | 431 kts | 198° |
| 2026-05-07 19:49 | 45.66894 | -5.17318 | 36961 ft | 431 kts | 198° |
| 2026-05-07 19:50 | 45.61081 | -5.19435 | 36948 ft | 431 kts | 198° |
| 2026-05-07 19:50 | 45.55266 | -5.21552 | 36949 ft | 431 kts | 198° |
| 2026-05-07 19:51 | 45.49449 | -5.23676 | 36952 ft | 432 kts | 198° |
| 2026-05-07 19:51 | 45.43628 | -5.25790 | 36947 ft | 432 kts | 198° |
| 2026-05-07 19:52 | 45.37803 | -5.27894 | 36942 ft | 432 kts | 198° |
| 2026-05-07 19:52 | 45.31978 | -5.29997 | 36949 ft | 432 kts | 198° |
| 2026-05-07 19:53 | 45.26142 | -5.32100 | 36953 ft | 432 kts | 198° |
| 2026-05-07 19:53 | 45.20314 | -5.34206 | 36939 ft | 432 kts | 198° |
| 2026-05-07 19:54 | 45.14478 | -5.36311 | 36938 ft | 433 kts | 198° |
| 2026-05-07 19:54 | 45.08634 | -5.38406 | 36931 ft | 433 kts | 198° |
| 2026-05-07 19:55 | 45.02779 | -5.40483 | 36926 ft | 434 kts | 198° |
| 2026-05-07 19:55 | 44.96919 | -5.42564 | 36928 ft | 434 kts | 199° |
| 2026-05-07 19:56 | 44.91057 | -5.44659 | 36928 ft | 435 kts | 199° |
| 2026-05-07 19:56 | 44.86181 | -5.46399 | 36908 ft | 435 kts | 199° |
| 2026-05-07 19:57 | 44.80302 | -5.48487 | 36919 ft | 435 kts | 199° |
| 2026-05-07 19:57 | 44.74457 | -5.50554 | 36924 ft | 435 kts | 199° |
| 2026-05-07 19:58 | 44.68573 | -5.52625 | 36922 ft | 435 kts | 199° |
| 2026-05-07 19:58 | 44.62687 | -5.54695 | 36923 ft | 435 kts | 199° |
| 2026-05-07 19:59 | 44.57092 | -5.57695 | 36924 ft | 429 kts | 208° |
| 2026-05-07 19:59 | 44.51629 | -5.61090 | 36918 ft | 429 kts | 208° |
| 2026-05-07 20:00 | 44.46199 | -5.64442 | 36908 ft | 429 kts | 208° |
| 2026-05-07 20:00 | 44.40725 | -5.67809 | 36914 ft | 430 kts | 208° |
| 2026-05-07 20:01 | 44.35248 | -5.71172 | 36912 ft | 430 kts | 208° |
| 2026-05-07 20:01 | 44.29779 | -5.74531 | 36922 ft | 429 kts | 208° |
| 2026-05-07 20:02 | 44.24314 | -5.77881 | 36913 ft | 429 kts | 208° |
| 2026-05-07 20:02 | 44.18844 | -5.81224 | 36917 ft | 428 kts | 208° |
| 2026-05-07 20:03 | 44.13384 | -5.84550 | 36919 ft | 428 kts | 208° |
| 2026-05-07 20:03 | 44.07924 | -5.87873 | 36921 ft | 428 kts | 208° |
| 2026-05-07 20:04 | 44.02464 | -5.91187 | 36915 ft | 428 kts | 208° |
| 2026-05-07 20:04 | 43.97006 | -5.94490 | 36915 ft | 428 kts | 208° |
| 2026-05-07 20:05 | 43.91582 | -5.97772 | 36917 ft | 428 kts | 208° |
| 2026-05-07 20:05 | 43.86124 | -6.01078 | 36903 ft | 427 kts | 208° |
| 2026-05-07 20:06 | 43.80674 | -6.04357 | 36909 ft | 427 kts | 208° |
| 2026-05-07 20:06 | 43.75225 | -6.07622 | 36918 ft | 427 kts | 208° |
| 2026-05-07 20:07 | 43.69775 | -6.10880 | 36909 ft | 426 kts | 209° |
| 2026-05-07 20:07 | 43.64348 | -6.14131 | 36912 ft | 424 kts | 209° |
| 2026-05-07 20:08 | 43.58927 | -6.17377 | 36915 ft | 425 kts | 209° |
| 2026-05-07 20:08 | 43.53496 | -6.20620 | 36924 ft | 426 kts | 209° |
| 2026-05-07 20:09 | 43.48058 | -6.23860 | 36918 ft | 426 kts | 209° |
| 2026-05-07 20:10 | 43.39931 | -6.28679 | 36923 ft | 424 kts | 209° |
| 2026-05-07 20:10 | 43.34515 | -6.31887 | 36932 ft | 423 kts | 209° |
| 2026-05-07 20:11 | 43.29112 | -6.35084 | 36922 ft | 422 kts | 209° |
| 2026-05-07 20:11 | 43.23716 | -6.38264 | 36915 ft | 422 kts | 209° |
| 2026-05-07 20:12 | 43.18326 | -6.41432 | 36931 ft | 420 kts | 209° |
| 2026-05-07 20:12 | 43.12956 | -6.44595 | 36936 ft | 420 kts | 209° |
| 2026-05-07 20:13 | 43.07598 | -6.47742 | 36925 ft | 417 kts | 209° |
| 2026-05-07 20:13 | 43.02253 | -6.50874 | 36938 ft | 418 kts | 209° |
| 2026-05-07 20:14 | 42.96910 | -6.53994 | 36935 ft | 417 kts | 209° |
| 2026-05-07 20:14 | 42.91587 | -6.57100 | 36933 ft | 415 kts | 209° |
| 2026-05-07 20:15 | 42.86267 | -6.60198 | 36933 ft | 415 kts | 209° |
| 2026-05-07 20:15 | 42.80992 | -6.63258 | 36911 ft | 415 kts | 209° |
| 2026-05-07 20:16 | 42.75679 | -6.66341 | 36920 ft | 414 kts | 209° |
| 2026-05-07 20:16 | 42.70370 | -6.69418 | 36925 ft | 414 kts | 209° |
| 2026-05-07 20:17 | 42.65059 | -6.72487 | 36924 ft | 414 kts | 209° |
| 2026-05-07 20:17 | 42.59754 | -6.75546 | 36926 ft | 414 kts | 209° |
| 2026-05-07 20:18 | 42.54442 | -6.78606 | 36931 ft | 414 kts | 209° |
| 2026-05-07 20:18 | 42.49157 | -6.81639 | 36929 ft | 414 kts | 209° |
| 2026-05-07 20:19 | 42.43841 | -6.84685 | 36936 ft | 414 kts | 208° |
| 2026-05-07 20:19 | 42.38535 | -6.87721 | 36917 ft | 413 kts | 208° |
| 2026-05-07 20:20 | 42.33232 | -6.90753 | 36931 ft | 412 kts | 208° |
| 2026-05-07 20:20 | 42.27988 | -6.93752 | 36930 ft | 411 kts | 208° |
| 2026-05-07 20:21 | 42.22712 | -6.96749 | 36925 ft | 411 kts | 208° |
| 2026-05-07 20:21 | 42.17446 | -6.99742 | 36924 ft | 411 kts | 208° |
| 2026-05-07 20:22 | 42.12180 | -7.02738 | 36931 ft | 410 kts | 208° |
| 2026-05-07 20:22 | 42.06920 | -7.05709 | 36935 ft | 410 kts | 208° |
| 2026-05-07 20:23 | 42.01659 | -7.08681 | 36935 ft | 410 kts | 208° |
| 2026-05-07 20:23 | 41.96410 | -7.11649 | 36920 ft | 409 kts | 208° |
| 2026-05-07 20:24 | 41.91171 | -7.14601 | 36934 ft | 408 kts | 208° |
| 2026-05-07 20:24 | 41.85939 | -7.17536 | 36935 ft | 406 kts | 208° |
| 2026-05-07 20:25 | 41.80729 | -7.20461 | 36933 ft | 406 kts | 208° |
| 2026-05-07 20:25 | 41.75490 | -7.23277 | 36924 ft | 408 kts | 202° |
| 2026-05-07 20:26 | 41.69847 | -7.24573 | 36935 ft | 412 kts | 194° |
| 2026-05-07 20:26 | 41.64213 | -7.25584 | 36933 ft | 410 kts | 194° |
| 2026-05-07 20:27 | 41.58572 | -7.26611 | 36929 ft | 408 kts | 194° |
| 2026-05-07 20:27 | 41.52943 | -7.27633 | 36911 ft | 407 kts | 194° |
| 2026-05-07 20:28 | 41.47335 | -7.28649 | 36919 ft | 406 kts | 194° |
| 2026-05-07 20:28 | 41.41740 | -7.29662 | 36927 ft | 405 kts | 194° |
| 2026-05-07 20:29 | 41.36145 | -7.30663 | 36928 ft | 405 kts | 194° |
| 2026-05-07 20:29 | 41.30558 | -7.31667 | 36914 ft | 404 kts | 194° |
| 2026-05-07 20:30 | 41.24982 | -7.32660 | 36919 ft | 404 kts | 194° |
| 2026-05-07 20:30 | 41.19443 | -7.33658 | 36925 ft | 404 kts | 194° |
| 2026-05-07 20:31 | 41.13870 | -7.34663 | 36928 ft | 404 kts | 194° |
| 2026-05-07 20:31 | 41.08303 | -7.35647 | 36912 ft | 402 kts | 194° |
| 2026-05-07 20:32 | 41.02754 | -7.36636 | 36925 ft | 402 kts | 194° |
| 2026-05-07 20:32 | 40.97208 | -7.37630 | 36937 ft | 401 kts | 194° |
| 2026-05-07 20:33 | 40.91683 | -7.38610 | 36936 ft | 401 kts | 194° |
| 2026-05-07 20:33 | 40.86154 | -7.39587 | 36931 ft | 400 kts | 194° |
| 2026-05-07 20:34 | 40.80644 | -7.40563 | 36940 ft | 399 kts | 194° |
| 2026-05-07 20:34 | 40.75130 | -7.41534 | 36926 ft | 399 kts | 195° |
| 2026-05-07 20:35 | 40.69665 | -7.42493 | 36940 ft | 399 kts | 194° |
| 2026-05-07 20:35 | 40.64164 | -7.43455 | 36920 ft | 398 kts | 194° |
| 2026-05-07 20:36 | 40.58672 | -7.44432 | 36927 ft | 398 kts | 194° |
| 2026-05-07 20:36 | 40.53186 | -7.45405 | 36940 ft | 398 kts | 194° |
| 2026-05-07 20:37 | 40.47697 | -7.46365 | 36940 ft | 398 kts | 194° |
| 2026-05-07 20:37 | 40.42209 | -7.47320 | 36941 ft | 398 kts | 194° |
| 2026-05-07 20:38 | 40.36724 | -7.48278 | 36937 ft | 397 kts | 194° |
| 2026-05-07 20:38 | 40.31235 | -7.49237 | 36938 ft | 397 kts | 194° |
| 2026-05-07 20:39 | 40.25781 | -7.50189 | 36935 ft | 397 kts | 194° |
| 2026-05-07 20:39 | 40.20301 | -7.51139 | 36922 ft | 397 kts | 194° |
| 2026-05-07 20:40 | 40.14830 | -7.52084 | 36931 ft | 396 kts | 194° |
| 2026-05-07 20:40 | 40.10283 | -7.52874 | 36928 ft | 396 kts | 194° |
| 2026-05-07 20:41 | 40.04785 | -7.53834 | 36926 ft | 396 kts | 194° |
| 2026-05-07 20:41 | 39.99323 | -7.54771 | 36918 ft | 395 kts | 194° |
| 2026-05-07 20:42 | 39.93906 | -7.55696 | 36924 ft | 395 kts | 194° |
| 2026-05-07 20:42 | 39.88459 | -7.56635 | 36930 ft | 394 kts | 194° |
| 2026-05-07 20:43 | 39.83020 | -7.57577 | 36930 ft | 394 kts | 194° |
| 2026-05-07 20:43 | 39.77583 | -7.58508 | 36911 ft | 394 kts | 194° |
| 2026-05-07 20:44 | 39.72150 | -7.59436 | 36922 ft | 393 kts | 194° |
| 2026-05-07 20:44 | 39.66724 | -7.60365 | 36942 ft | 393 kts | 193° |
| 2026-05-07 20:45 | 39.61310 | -7.61286 | 36944 ft | 392 kts | 193° |
| 2026-05-07 20:45 | 39.55909 | -7.62210 | 36938 ft | 391 kts | 193° |
| 2026-05-07 20:46 | 39.50520 | -7.63128 | 36925 ft | 390 kts | 193° |
| 2026-05-07 20:46 | 39.45138 | -7.64047 | 36925 ft | 390 kts | 193° |
| 2026-05-07 20:47 | 39.39751 | -7.64964 | 36934 ft | 390 kts | 193° |
| 2026-05-07 20:47 | 39.34283 | -7.65214 | 36931 ft | 395 kts | 186° |
| 2026-05-07 20:48 | 39.28775 | -7.65203 | 36926 ft | 395 kts | 186° |
| 2026-05-07 20:48 | 39.23269 | -7.65196 | 36937 ft | 395 kts | 186° |
| 2026-05-07 20:49 | 39.17770 | -7.65197 | 36938 ft | 395 kts | 186° |
| 2026-05-07 20:49 | 39.12273 | -7.65198 | 36945 ft | 395 kts | 186° |
| 2026-05-07 20:50 | 39.06783 | -7.65198 | 36921 ft | 394 kts | 186° |
| 2026-05-07 20:50 | 39.01331 | -7.65155 | 36927 ft | 395 kts | 185° |
| 2026-05-07 20:51 | 38.95823 | -7.64930 | 36932 ft | 396 kts | 184° |
| 2026-05-07 20:51 | 38.90312 | -7.64654 | 36932 ft | 396 kts | 184° |
| 2026-05-07 20:52 | 38.84805 | -7.64410 | 36922 ft | 395 kts | 185° |
| 2026-05-07 20:52 | 38.82060 | -7.64299 | 36483 ft | 393 kts | 185° |
| 2026-05-07 20:52 | 38.79330 | -7.64192 | 35947 ft | 390 kts | 185° |
| 2026-05-07 20:52 | 38.76631 | -7.64088 | 35419 ft | 387 kts | 185° |
| 2026-05-07 20:53 | 38.73956 | -7.63983 | 34887 ft | 384 kts | 185° |
| 2026-05-07 20:53 | 38.71295 | -7.63878 | 34395 ft | 381 kts | 185° |
| 2026-05-07 20:53 | 38.68657 | -7.63777 | 33912 ft | 378 kts | 185° |
| 2026-05-07 20:53 | 38.66040 | -7.63678 | 33378 ft | 375 kts | 185° |
| 2026-05-07 20:54 | 38.63436 | -7.63578 | 32826 ft | 373 kts | 184° |
| 2026-05-07 20:54 | 38.60854 | -7.63473 | 32340 ft | 370 kts | 184° |
| 2026-05-07 20:54 | 38.58288 | -7.63368 | 31846 ft | 367 kts | 184° |
| 2026-05-07 20:54 | 38.55741 | -7.63265 | 31351 ft | 365 kts | 183° |
| 2026-05-07 20:55 | 38.53238 | -7.63165 | 30874 ft | 363 kts | 183° |
| 2026-05-07 20:55 | 38.50718 | -7.63066 | 30401 ft | 361 kts | 183° |
| 2026-05-07 20:55 | 38.48214 | -7.62970 | 29929 ft | 359 kts | 182° |
| 2026-05-07 20:55 | 38.45723 | -7.62874 | 29404 ft | 357 kts | 182° |
| 2026-05-07 20:56 | 38.43245 | -7.62775 | 28903 ft | 355 kts | 182° |
| 2026-05-07 20:56 | 38.40781 | -7.62677 | 28424 ft | 353 kts | 182° |
| 2026-05-07 20:56 | 38.38330 | -7.62582 | 27933 ft | 351 kts | 182° |
| 2026-05-07 20:56 | 38.35895 | -7.62491 | 27441 ft | 349 kts | 182° |
| 2026-05-07 20:57 | 38.33476 | -7.62402 | 26979 ft | 347 kts | 182° |
| 2026-05-07 20:57 | 38.31064 | -7.62312 | 26517 ft | 345 kts | 182° |
| 2026-05-07 20:57 | 38.28667 | -7.62218 | 26059 ft | 343 kts | 182° |
| 2026-05-07 20:57 | 38.26278 | -7.62124 | 25605 ft | 341 kts | 182° |
| 2026-05-07 20:58 | 38.23908 | -7.62032 | 25143 ft | 340 kts | 182° |
| 2026-05-07 20:58 | 38.21551 | -7.61940 | 24685 ft | 338 kts | 182° |
| 2026-05-07 20:58 | 38.19206 | -7.61849 | 24247 ft | 337 kts | 182° |
| 2026-05-07 20:58 | 38.16871 | -7.61759 | 23814 ft | 335 kts | 182° |
| 2026-05-07 20:59 | 38.14547 | -7.61670 | 23359 ft | 334 kts | 182° |
| 2026-05-07 20:59 | 38.12231 | -7.61579 | 22877 ft | 331 kts | 182° |
| 2026-05-07 20:59 | 38.09935 | -7.61481 | 22429 ft | 329 kts | 181° |
| 2026-05-07 20:59 | 38.07658 | -7.61395 | 22009 ft | 326 kts | 182° |
| 2026-05-07 21:00 | 38.05404 | -7.61370 | 21601 ft | 323 kts | 183° |
| 2026-05-07 21:00 | 38.03166 | -7.61381 | 21203 ft | 320 kts | 184° |
| 2026-05-07 21:00 | 38.00952 | -7.61404 | 20800 ft | 317 kts | 184° |
| 2026-05-07 21:00 | 37.98774 | -7.61427 | 20417 ft | 315 kts | 184° |
| 2026-05-07 21:01 | 37.96595 | -7.61447 | 20032 ft | 312 kts | 184° |
| 2026-05-07 21:01 | 37.94433 | -7.61456 | 19659 ft | 310 kts | 184° |
| 2026-05-07 21:01 | 37.92285 | -7.61459 | 19301 ft | 307 kts | 184° |
| 2026-05-07 21:01 | 37.90106 | -7.61464 | 18730 ft | 319 kts | 184° |
| 2026-05-07 21:02 | 37.87871 | -7.61467 | 18240 ft | 322 kts | 184° |
| 2026-05-07 21:02 | 37.85629 | -7.61464 | 17681 ft | 322 kts | 183° |
| 2026-05-07 21:02 | 37.83381 | -7.61462 | 17124 ft | 323 kts | 183° |
| 2026-05-07 21:02 | 37.81135 | -7.61463 | 16579 ft | 323 kts | 182° |
| 2026-05-07 21:03 | 37.78886 | -7.61466 | 16084 ft | 322 kts | 182° |
| 2026-05-07 21:03 | 37.76641 | -7.61467 | 15550 ft | 323 kts | 182° |
| 2026-05-07 21:03 | 37.74393 | -7.61467 | 15033 ft | 323 kts | 181° |
| 2026-05-07 21:03 | 37.72141 | -7.61464 | 14522 ft | 323 kts | 181° |
| 2026-05-07 21:04 | 37.69889 | -7.61462 | 14011 ft | 323 kts | 181° |
| 2026-05-07 21:04 | 37.67642 | -7.61462 | 13486 ft | 323 kts | 181° |
| 2026-05-07 21:04 | 37.65418 | -7.61463 | 12937 ft | 323 kts | 180° |
| 2026-05-07 21:04 | 37.63170 | -7.61464 | 12390 ft | 322 kts | 180° |
| 2026-05-07 21:05 | 37.60930 | -7.61464 | 11856 ft | 321 kts | 180° |
| 2026-05-07 21:05 | 37.58695 | -7.61463 | 11328 ft | 320 kts | 180° |
| 2026-05-07 21:05 | 37.56471 | -7.61468 | 10809 ft | 319 kts | 180° |
| 2026-05-07 21:05 | 37.54255 | -7.61473 | 10299 ft | 317 kts | 180° |
| 2026-05-07 21:06 | 37.52065 | -7.61475 | 9999 ft | 311 kts | 180° |
| 2026-05-07 21:06 | 37.49902 | -7.61475 | 9951 ft | 310 kts | 180° |
| 2026-05-07 21:06 | 37.47744 | -7.61475 | 9953 ft | 309 kts | 180° |
| 2026-05-07 21:06 | 37.45656 | -7.61476 | 9945 ft | 291 kts | 180° |
| 2026-05-07 21:07 | 37.43685 | -7.61477 | 9860 ft | 278 kts | 180° |
| 2026-05-07 21:07 | 37.41767 | -7.61474 | 9553 ft | 274 kts | 180° |
| 2026-05-07 21:07 | 37.39872 | -7.61475 | 9166 ft | 272 kts | 180° |
| 2026-05-07 21:07 | 37.37984 | -7.61476 | 8776 ft | 270 kts | 179° |
| 2026-05-07 21:08 | 37.36109 | -7.61478 | 8375 ft | 268 kts | 179° |
| 2026-05-07 21:08 | 37.34244 | -7.61479 | 7951 ft | 268 kts | 179° |
| 2026-05-07 21:08 | 37.32382 | -7.61476 | 7546 ft | 266 kts | 178° |
| 2026-05-07 21:08 | 37.30534 | -7.61476 | 7131 ft | 266 kts | 178° |
| 2026-05-07 21:09 | 37.28687 | -7.61479 | 6728 ft | 265 kts | 177° |
| 2026-05-07 21:09 | 37.26845 | -7.61480 | 6292 ft | 264 kts | 177° |
| 2026-05-07 21:09 | 37.25035 | -7.61480 | 5977 ft | 261 kts | 177° |
| 2026-05-07 21:09 | 37.23210 | -7.61482 | 5949 ft | 263 kts | 177° |
| 2026-05-07 21:10 | 37.21376 | -7.61482 | 5942 ft | 264 kts | 177° |
| 2026-05-07 21:10 | 37.19534 | -7.61482 | 5953 ft | 265 kts | 177° |
| 2026-05-07 21:10 | 37.17688 | -7.61481 | 5942 ft | 266 kts | 177° |
| 2026-05-07 21:10 | 37.15839 | -7.61479 | 5944 ft | 265 kts | 177° |
| 2026-05-07 21:11 | 37.13992 | -7.61478 | 5920 ft | 265 kts | 177° |
| 2026-05-07 21:11 | 37.12159 | -7.61477 | 5519 ft | 262 kts | 178° |
| 2026-05-07 21:11 | 37.08523 | -7.61564 | 4626 ft | 262 kts | 189° |
| 2026-05-07 21:12 | 37.06807 | -7.62281 | 4165 ft | 261 kts | 204° |
| 2026-05-07 21:12 | 37.05140 | -7.63204 | 3676 ft | 262 kts | 205° |
| 2026-05-07 21:12 | 37.03470 | -7.64127 | 3218 ft | 262 kts | 206° |
| 2026-05-07 21:12 | 37.01808 | -7.65044 | 3001 ft | 261 kts | 206° |
| 2026-05-07 21:13 | 37.00133 | -7.65965 | 3010 ft | 264 kts | 206° |
| 2026-05-07 21:13 | 36.98524 | -7.67044 | 2990 ft | 260 kts | 226° |
| 2026-05-07 21:13 | 36.97630 | -7.68871 | 3003 ft | 236 kts | 263° |
| 2026-05-07 21:13 | 36.97712 | -7.70795 | 3015 ft | 212 kts | 283° |
| 2026-05-07 21:14 | 36.97973 | -7.72547 | 2982 ft | 197 kts | 282° |
| 2026-05-07 21:14 | 36.98215 | -7.74177 | 3004 ft | 186 kts | 283° |
| 2026-05-07 21:14 | 36.98452 | -7.75755 | 3041 ft | 183 kts | 282° |
| 2026-05-07 21:14 | 36.98674 | -7.77265 | 2937 ft | 175 kts | 282° |
| 2026-05-07 21:15 | 36.98887 | -7.78731 | 2756 ft | 168 kts | 283° |
| 2026-05-07 21:15 | 36.99091 | -7.80150 | 2544 ft | 162 kts | 283° |
| 2026-05-07 21:15 | 36.99287 | -7.81513 | 2335 ft | 156 kts | 284° |
| 2026-05-07 21:15 | 36.99476 | -7.82833 | 2126 ft | 151 kts | 284° |
| 2026-05-07 21:16 | 36.99658 | -7.84103 | 1928 ft | 146 kts | 286° |
| 2026-05-07 21:16 | 36.99832 | -7.85320 | 1736 ft | 139 kts | 286° |
| 2026-05-07 21:16 | 36.99999 | -7.86486 | 1569 ft | 132 kts | 286° |
| 2026-05-07 21:16 | 37.00161 | -7.87617 | 1380 ft | 131 kts | 284° |
| 2026-05-07 21:17 | 37.00320 | -7.88724 | 1202 ft | 130 kts | 283° |
| 2026-05-07 21:17 | 37.00477 | -7.89818 | 1035 ft | 126 kts | 284° |
| 2026-05-07 21:17 | 37.00630 | -7.90906 | 855 ft | 126 kts | 279° |
| 2026-05-07 21:17 | 37.00775 | -7.91985 | 697 ft | 126 kts | 283° |
| 2026-05-07 21:18 | 37.00967 | -7.93064 | 461 ft | 127 kts | 279° |
| 2026-05-07 21:18 | 37.01092 | -7.94161 | 334 ft | 127 kts | 284° |
| 2026-05-07 21:18 | 37.01249 | -7.95233 | 183 ft | 125 kts | 282° |
| 2026-05-07 21:18 | 37.01408 | -7.96300 | 33 ft | 121 kts | 281° |
| 2026-05-07 21:19 | 37.01531 | -7.97185 | 20 ft | 80 kts | 280° |
| 2026-05-07 21:19 | 37.01600 | -7.97675 | 20 ft | 31 kts | 280° |
| 2026-05-07 21:19 | 37.01624 | -7.97828 | 19 ft | 12 kts | 294° |
| 2026-05-07 21:19 | 37.01693 | -7.97845 | 20 ft | 10 kts | 28° |
| 2026-05-07 21:20 | 37.01731 | -7.97791 | 20 ft | 8 kts | 60° |
| 2026-05-07 21:20 | 37.01749 | -7.97750 | 20 ft | 5 kts | 64° |
| 2026-05-07 21:20 | 37.01761 | -7.97712 | 23 ft | 7 kts | 70° |
| 2026-05-07 21:20 | 37.01772 | -7.97641 | 23 ft | 8 kts | 86° |
| 2026-05-07 21:21 | 37.01769 | -7.97580 | 20 ft | 3 kts | 98° |
| 2026-05-07 21:21 | 37.01765 | -7.97554 | 20 ft | 6 kts | 100° |
| 2026-05-07 21:21 | 37.01754 | -7.97493 | 22 ft | 0 kts | 102° |
| 2026-05-07 21:21 | 37.01753 | -7.97471 | 20 ft | 8 kts | 96° |
| 2026-05-07 21:22 | 37.01741 | -7.97388 | 21 ft | 9 kts | 101° |
| 2026-05-07 21:22 | 37.01733 | -7.97330 | 20 ft | 6 kts | 99° |
| 2026-05-07 21:22 | 37.01722 | -7.97249 | 20 ft | 13 kts | 100° |
| 2026-05-07 21:22 | 37.01706 | -7.97148 | 20 ft | 13 kts | 100° |
| 2026-05-07 21:23 | 37.01695 | -7.97066 | 20 ft | 11 kts | 100° |
| 2026-05-07 21:23 | 37.01680 | -7.96967 | 21 ft | 9 kts | 101° |
| 2026-05-07 21:23 | 37.01719 | -7.96902 | 20 ft | 11 kts | 15° |
| 2026-05-07 21:23 | 37.01772 | -7.96888 | 20 ft | 7 kts | 12° |
| 2026-05-07 21:24 | 37.01814 | -7.96868 | 20 ft | 5 kts | 38° |
| 2026-05-07 21:24 | 37.01850 | -7.96852 | 22 ft | 3 kts | 10° |
| 2026-05-07 21:24 | 37.01879 | -7.96846 | 20 ft | 4 kts | 10° |
| 2026-05-07 21:24 | 37.01902 | -7.96841 | 20 ft | 2 kts | 10° |
| 2026-05-07 21:25 | 37.01913 | -7.96838 | 20 ft | 1 kts | 10° |
| 2026-05-07 21:25 | 37.01915 | -7.96838 | 20 ft | 0 kts | 10° |